createdAt,value
2023-03-05T00:00:56.767Z,98687.47
2023-03-05T00:04:01.055Z,98678.75
2023-03-05T00:07:02.828Z,98683.97
2023-03-05T00:10:09.147Z,98682.25
2023-03-05T00:13:11.072Z,98674.31
2023-03-05T00:16:13.482Z,98676.06
2023-03-05T00:19:17.357Z,98675.16
2023-03-05T00:22:19.196Z,98669.06
2023-03-05T00:25:22.304Z,98667.28
2023-03-05T00:28:24.038Z,98670.75
2023-03-05T00:31:26.914Z,98667.25
2023-03-05T00:34:29.745Z,98654.97
2023-03-05T00:37:31.470Z,98662.88
2023-03-05T00:40:36.979Z,98655.88
2023-03-05T00:43:38.742Z,98650.66
2023-03-05T00:46:40.625Z,98648.00
2023-03-05T00:49:42.649Z,98646.28
2023-03-05T00:52:44.825Z,98644.53
2023-03-05T00:55:50.830Z,98635.78
2023-03-05T00:58:54.756Z,98628.75
2023-03-05T01:01:56.927Z,98624.38
2023-03-05T01:04:58.783Z,98624.41
2023-03-05T01:08:00.354Z,98618.25
2023-03-05T01:11:03.885Z,98615.63
2023-03-05T01:14:05.565Z,98606.00
2023-03-05T01:17:07.812Z,98604.31
2023-03-05T01:20:10.300Z,98605.16
2023-03-05T01:23:12.173Z,98599.91
2023-03-05T01:26:16.064Z,98591.19
2023-03-05T01:29:17.634Z,98590.31
2023-03-05T01:32:19.372Z,98586.81
2023-03-05T01:35:22.194Z,98578.06
2023-03-05T01:38:24.131Z,98578.03
2023-03-05T01:41:26.957Z,98569.28
2023-03-05T01:44:29.811Z,98578.03
2023-03-05T01:47:31.494Z,98577.16
2023-03-05T01:50:33.455Z,98571.06
2023-03-05T01:53:35.091Z,98572.00
2023-03-05T01:56:39.607Z,98557.97
2023-03-05T01:59:43.093Z,98555.34
2023-03-05T02:02:49.311Z,98556.19
2023-03-05T02:05:50.998Z,98547.47
2023-03-05T02:08:52.603Z,98544.81
2023-03-05T02:11:56.312Z,98550.09
2023-03-05T02:14:59.455Z,98542.19
2023-03-05T02:18:03.984Z,98540.44
2023-03-05T02:21:07.403Z,98539.53
2023-03-05T02:24:11.918Z,98536.06
2023-03-05T02:27:14.837Z,98533.41
2023-03-05T02:30:16.382Z,98525.53
2023-03-05T02:33:19.335Z,98522.03
2023-03-05T02:36:23.098Z,98516.78
2023-03-05T02:39:24.801Z,98513.22
2023-03-05T02:42:26.548Z,98510.59
2023-03-05T02:45:28.457Z,98505.34
2023-03-05T02:48:30.161Z,98505.28
2023-03-05T02:51:33.350Z,98497.41
2023-03-05T02:54:35.149Z,98493.03
2023-03-05T02:57:38.278Z,98497.41
2023-03-05T03:00:39.971Z,98486.88
2023-03-05T03:03:41.525Z,98484.22
2023-03-05T03:06:45.661Z,98485.09
2023-03-05T03:09:47.166Z,98478.94
2023-03-05T03:12:48.703Z,98473.69
2023-03-05T03:15:50.175Z,98475.47
2023-03-05T03:18:51.809Z,98462.38
2023-03-05T03:21:55.124Z,98463.22
2023-03-05T03:24:56.736Z,98459.72
2023-03-05T03:27:58.261Z,98462.34
2023-03-05T03:31:00.033Z,98453.59
2023-03-05T03:34:01.554Z,98453.59
2023-03-05T03:37:04.430Z,98445.69
2023-03-05T03:40:06.686Z,98450.97
2023-03-05T03:43:08.403Z,98444.81
2023-03-05T03:46:10.074Z,98443.94
2023-03-05T03:49:14.516Z,98442.16
2023-03-05T03:52:17.573Z,98431.69
2023-03-05T03:55:19.141Z,98431.69
2023-03-05T03:58:20.864Z,98432.56
2023-03-05T04:01:22.443Z,98415.00
2023-03-05T04:04:24.145Z,98419.44
2023-03-05T04:07:27.422Z,98409.75
2023-03-05T04:10:29.136Z,98416.78
2023-03-05T04:13:30.947Z,98401.88
2023-03-05T04:16:32.666Z,98402.75
2023-03-05T04:19:34.240Z,98405.41
2023-03-05T04:22:37.681Z,98396.63
2023-03-05T04:25:39.305Z,98396.63
2023-03-05T04:28:40.877Z,98397.50
2023-03-05T04:31:42.615Z,98398.41
2023-03-05T04:34:44.295Z,98390.50
2023-03-05T04:37:47.368Z,98385.25
2023-03-05T04:40:49.174Z,98385.22
2023-03-05T04:43:50.882Z,98381.72
2023-03-05T04:46:52.827Z,98378.22
2023-03-05T04:49:54.417Z,98372.97
2023-03-05T04:52:57.884Z,98372.13
2023-03-05T04:56:01.733Z,98367.66
2023-03-05T04:59:03.389Z,98372.00
2023-03-05T05:02:05.446Z,98362.41
2023-03-05T05:05:07.724Z,98365.03
2023-03-05T05:08:11.048Z,98371.22
2023-03-05T05:11:13.574Z,98368.56
2023-03-05T05:14:15.486Z,98366.81
2023-03-05T05:17:17.177Z,98375.53
2023-03-05T05:20:18.954Z,98369.41
2023-03-05T05:23:22.435Z,98363.34
2023-03-05T05:26:24.053Z,98367.72
2023-03-05T05:29:26.101Z,98365.94
2023-03-05T05:32:27.743Z,98372.03
2023-03-05T05:35:29.773Z,98366.84
2023-03-05T05:38:32.945Z,98363.34
2023-03-05T05:41:34.783Z,98361.59
2023-03-05T05:44:36.421Z,98360.69
2023-03-05T05:47:37.965Z,98360.72
2023-03-05T05:50:41.131Z,98364.22
2023-03-05T05:53:44.290Z,98356.34
2023-03-05T05:56:45.871Z,98358.09
2023-03-05T05:59:47.427Z,98355.53
2023-03-05T06:02:49.039Z,98354.59
2023-03-05T06:05:52.413Z,98352.91
2023-03-05T06:08:55.654Z,98351.22
2023-03-05T06:11:57.358Z,98347.72
2023-03-05T06:14:59.134Z,98347.72
2023-03-05T06:18:01.094Z,98343.34
2023-03-05T06:21:04.188Z,98341.59
2023-03-05T06:24:07.457Z,98339.81
2023-03-05T06:27:09.212Z,98341.53
2023-03-05T06:30:11.954Z,98340.72
2023-03-05T06:33:13.662Z,98345.94
2023-03-05T06:36:17.026Z,98337.22
2023-03-05T06:39:19.968Z,98344.28
2023-03-05T06:42:22.028Z,98333.78
2023-03-05T06:45:23.582Z,98339.03
2023-03-05T06:48:25.374Z,98334.63
2023-03-05T06:51:28.588Z,98332.91
2023-03-05T06:54:31.769Z,98329.44
2023-03-05T06:57:33.513Z,98326.81
2023-03-05T07:00:35.117Z,98331.22
2023-03-05T07:03:37.537Z,98331.25
2023-03-05T07:06:39.968Z,98333.84
2023-03-05T07:09:44.999Z,98333.88
2023-03-05T07:12:46.452Z,98314.59
2023-03-05T07:15:48.068Z,98326.81
2023-03-05T07:18:49.966Z,98324.22
2023-03-05T07:21:51.646Z,98318.91
2023-03-05T07:24:54.549Z,98322.34
2023-03-05T07:27:56.133Z,98308.34
2023-03-05T07:30:58.319Z,98318.00
2023-03-05T07:34:00.949Z,98320.72
2023-03-05T07:37:02.540Z,98312.88
2023-03-05T07:40:06.507Z,98309.41
2023-03-05T07:43:08.770Z,98310.25
2023-03-05T07:46:12.604Z,98316.31
2023-03-05T07:49:14.374Z,98309.28
2023-03-05T07:52:16.090Z,98317.13
2023-03-05T07:55:19.066Z,98312.69
2023-03-05T07:58:23.003Z,98303.06
2023-03-05T08:01:25.060Z,98305.72
2023-03-05T08:04:26.935Z,98305.63
2023-03-05T08:07:37.363Z,98313.50
2023-03-05T08:10:41.683Z,98295.94
2023-03-05T08:13:44.272Z,98304.66
2023-03-05T08:16:48.318Z,98307.28
2023-03-05T08:19:50.044Z,98302.09
2023-03-05T08:22:51.822Z,98303.81
2023-03-05T08:25:55.061Z,98297.66
2023-03-05T08:28:57.207Z,98293.19
2023-03-05T08:31:58.974Z,98295.69
2023-03-05T08:35:02.826Z,98293.84
2023-03-05T08:38:04.728Z,98294.78
2023-03-05T08:41:07.772Z,98296.47
2023-03-05T08:44:09.433Z,98303.47
2023-03-05T08:47:11.052Z,98294.81
2023-03-05T08:50:14.546Z,98295.53
2023-03-05T08:53:16.259Z,98294.59
2023-03-05T08:56:19.367Z,98291.00
2023-03-05T08:59:20.954Z,98286.66
2023-03-05T09:02:23.131Z,98285.03
2023-03-05T09:05:24.874Z,98281.53
2023-03-05T09:08:27.559Z,98292.00
2023-03-05T09:11:30.574Z,98285.03
2023-03-05T09:14:32.216Z,98292.06
2023-03-05T09:17:34.916Z,98283.13
2023-03-05T09:20:37.213Z,98281.22
2023-03-05T09:23:39.202Z,98268.75
2023-03-05T09:26:42.413Z,98275.56
2023-03-05T09:29:44.073Z,98280.63
2023-03-05T09:32:45.742Z,98281.28
2023-03-05T09:35:48.818Z,98277.59
2023-03-05T09:38:50.873Z,98272.94
2023-03-05T09:42:09.883Z,98277.44
2023-03-05T09:45:17.399Z,98277.31
2023-03-05T09:48:20.751Z,98263.81
2023-03-05T09:51:24.446Z,98269.97
2023-03-05T09:54:30.267Z,98270.16
2023-03-05T09:57:39.128Z,98260.44
2023-03-05T10:00:42.140Z,98264.75
2023-03-05T10:03:48.825Z,98263.03
2023-03-05T10:06:53.247Z,98262.91
2023-03-05T10:09:56.684Z,98260.47
2023-03-05T10:13:01.865Z,98253.44
2023-03-05T10:16:07.194Z,98251.69
2023-03-05T10:19:13.210Z,98245.50
2023-03-05T10:22:17.970Z,98248.88
2023-03-05T10:25:23.756Z,98251.63
2023-03-05T10:28:33.440Z,98242.16
2023-03-05T10:31:46.695Z,98242.03
2023-03-05T10:35:07.680Z,98238.00
2023-03-05T10:38:38.595Z,98228.47
2023-03-05T10:41:45.223Z,98232.28
2023-03-05T10:44:51.020Z,98228.91
2023-03-05T10:47:54.457Z,98224.50
2023-03-05T10:50:59.911Z,98226.25
2023-03-05T10:54:05.909Z,98222.69
2023-03-05T10:57:16.994Z,98220.50
2023-03-05T11:00:21.537Z,98211.56
2023-03-05T11:03:23.098Z,98216.78
2023-03-05T11:06:29.769Z,98204.63
2023-03-05T11:09:32.756Z,98199.56
2023-03-05T11:12:35.019Z,98205.81
2023-03-05T11:15:37.970Z,98202.38
2023-03-05T11:18:39.537Z,98188.22
2023-03-05T11:21:41.720Z,98192.44
2023-03-05T11:24:43.779Z,98190.88
2023-03-05T11:27:51.974Z,98184.03
2023-03-05T11:30:57.819Z,98178.56
2023-03-05T11:34:01.171Z,98192.47
2023-03-05T11:37:06.130Z,98180.75
2023-03-05T11:40:20.471Z,98173.97
2023-03-05T11:43:23.276Z,98171.91
2023-03-05T11:46:27.873Z,98164.16
2023-03-05T11:49:32.014Z,98161.88
2023-03-05T11:52:40.178Z,98156.75
2023-03-05T11:55:44.382Z,98153.19
2023-03-05T11:58:48.350Z,98146.09
2023-03-05T12:01:53.527Z,98142.03
2023-03-05T12:04:56.517Z,98137.81
2023-03-05T12:07:59.556Z,98135.03
2023-03-05T12:11:05.084Z,98125.72
2023-03-05T12:14:15.358Z,98126.13
2023-03-05T12:17:22.480Z,98118.13
2023-03-05T12:20:28.010Z,98124.00
2023-03-05T12:23:29.893Z,98108.91
2023-03-05T12:26:59.530Z,98101.78
2023-03-05T12:30:04.309Z,98104.72
2023-03-05T12:33:28.995Z,98094.25
2023-03-05T12:36:35.425Z,98089.66
2023-03-05T12:39:49.608Z,98100.69
2023-03-05T12:42:55.899Z,98099.41
2023-03-05T12:46:16.385Z,98090.91
2023-03-05T12:49:35.952Z,98089.84
2023-03-05T12:52:46.163Z,98085.09
2023-03-05T12:55:55.736Z,98080.03
2023-03-05T12:58:58.993Z,98077.75
2023-03-05T13:02:03.101Z,98068.88
2023-03-05T13:05:07.931Z,98066.72
2023-03-05T13:08:14.861Z,98067.22
2023-03-05T13:11:20.493Z,98062.25
2023-03-05T13:14:46.350Z,98059.72
2023-03-05T13:17:52.160Z,98059.56
2023-03-05T13:21:04.614Z,98037.38
2023-03-05T13:24:15.179Z,98043.94
2023-03-05T13:27:21.229Z,98046.72
2023-03-05T13:30:23.575Z,98034.06
2023-03-05T13:33:26.423Z,98029.16
2023-03-05T13:36:28.179Z,98031.81
2023-03-05T13:39:33.220Z,98016.84
2023-03-05T13:42:36.716Z,98018.06
2023-03-05T13:45:40.267Z,98017.22
2023-03-05T13:48:42.317Z,98009.88
2023-03-05T13:51:44.695Z,98017.31
2023-03-05T13:54:48.594Z,98015.59
2023-03-05T13:57:51.286Z,98002.59
2023-03-05T14:01:02.342Z,98000.34
2023-03-05T14:04:07.294Z,97997.19
2023-03-05T14:07:24.618Z,97993.94
2023-03-05T14:10:29.567Z,97991.50
2023-03-05T14:13:32.175Z,97987.69
2023-03-05T14:16:33.913Z,97980.56
2023-03-05T14:19:37.902Z,97975.44
2023-03-05T14:22:40.745Z,97970.69
2023-03-05T14:25:43.778Z,97969.63
2023-03-05T14:28:50.347Z,97960.84
2023-03-05T14:31:53.502Z,97964.88
2023-03-05T14:34:56.623Z,97950.69
2023-03-05T14:37:59.454Z,97943.34
2023-03-05T14:41:16.157Z,97938.63
2023-03-05T14:44:19.684Z,97930.16
2023-03-05T14:47:22.345Z,97923.31
2023-03-05T14:50:25.326Z,97918.38
2023-03-05T14:53:31.763Z,97922.84
2023-03-05T14:56:33.802Z,97926.28
2023-03-05T14:59:37.598Z,97906.78
2023-03-05T15:02:39.756Z,97912.22
2023-03-05T15:05:42.126Z,97904.13
2023-03-05T15:08:44.094Z,97896.44
2023-03-05T15:11:46.124Z,97896.91
2023-03-05T15:14:49.539Z,97893.56
2023-03-05T15:17:58.688Z,97893.63
2023-03-05T15:21:00.303Z,97884.84
2023-03-05T15:24:02.448Z,97886.84
2023-03-05T15:27:05.852Z,97879.06
2023-03-05T15:30:15.328Z,97879.03
2023-03-05T15:33:17.557Z,97878.28
2023-03-05T15:36:19.316Z,97880.13
2023-03-05T15:39:21.537Z,97874.00
2023-03-05T15:42:23.637Z,97871.41
2023-03-05T15:45:27.445Z,97866.13
2023-03-05T15:48:29.069Z,97868.75
2023-03-05T15:51:30.879Z,97861.75
2023-03-05T15:54:32.660Z,97861.75
2023-03-05T15:57:35.550Z,97863.44
2023-03-05T16:00:40.303Z,97860.84
2023-03-05T16:03:41.979Z,97851.09
2023-03-05T16:06:44.076Z,97851.19
2023-03-05T16:09:48.082Z,97852.97
2023-03-05T16:12:52.827Z,97855.75
2023-03-05T16:15:56.615Z,97859.41
2023-03-05T16:18:58.566Z,97855.94
2023-03-05T16:22:00.212Z,97853.38
2023-03-05T16:25:02.601Z,97853.50
2023-03-05T16:28:04.836Z,97854.41
2023-03-05T16:31:08.103Z,97859.78
2023-03-05T16:34:09.897Z,97852.78
2023-03-05T16:37:19.331Z,97844.94
2023-03-05T16:40:21.142Z,97854.69
2023-03-05T16:43:22.878Z,97841.66
2023-03-05T16:46:27.064Z,97839.06
2023-03-05T16:49:29.045Z,97840.91
2023-03-05T16:52:31.003Z,97832.34
2023-03-05T16:55:32.764Z,97828.00
2023-03-05T16:58:35.216Z,97834.22
2023-03-05T17:01:38.438Z,97825.56
2023-03-05T17:04:40.084Z,97829.16
2023-03-05T17:07:41.688Z,97829.22
2023-03-05T17:10:43.426Z,97824.16
2023-03-05T17:13:47.673Z,97821.59
2023-03-05T17:16:52.018Z,97823.41
2023-03-05T17:19:53.714Z,97813.66
2023-03-05T17:22:55.723Z,97815.50
2023-03-05T17:25:57.567Z,97813.78
2023-03-05T17:28:59.291Z,97809.47
2023-03-05T17:32:02.431Z,97817.41
2023-03-05T17:35:05.620Z,97803.44
2023-03-05T17:38:08.365Z,97806.94
2023-03-05T17:41:10.522Z,97808.69
2023-03-05T17:44:13.762Z,97807.84
2023-03-05T17:47:17.395Z,97808.75
2023-03-05T17:50:19.741Z,97813.16
2023-03-05T17:53:22.051Z,97805.38
2023-03-05T17:56:25.773Z,97804.56
2023-03-05T17:59:28.627Z,97804.59
2023-03-05T18:02:33.651Z,97809.88
2023-03-05T18:05:35.701Z,97809.03
2023-03-05T18:08:37.489Z,97806.38
2023-03-05T18:11:39.482Z,97809.88
2023-03-05T18:14:41.279Z,97798.41
2023-03-05T18:17:44.662Z,97800.16
2023-03-05T18:20:47.760Z,97795.78
2023-03-05T18:23:50.083Z,97794.88
2023-03-05T18:26:52.166Z,97794.88
2023-03-05T18:29:54.362Z,97786.06
2023-03-05T18:32:58.027Z,97784.28
2023-03-05T18:35:59.876Z,97786.88
2023-03-05T18:39:01.814Z,97773.78
2023-03-05T18:42:03.461Z,97770.25
2023-03-05T18:45:06.278Z,97778.16
2023-03-05T18:48:10.082Z,97764.97
2023-03-05T18:51:14.072Z,97769.34
2023-03-05T18:54:15.788Z,97763.25
2023-03-05T18:57:17.397Z,97764.16
2023-03-05T19:00:20.017Z,97764.22
2023-03-05T19:03:23.293Z,97757.06
2023-03-05T19:06:24.991Z,97757.06
2023-03-05T19:09:42.161Z,97755.34
2023-03-05T19:12:55.742Z,97755.34
2023-03-05T19:15:58.231Z,97756.25
2023-03-05T19:19:13.808Z,97759.81
2023-03-05T19:22:15.551Z,97755.47
2023-03-05T19:25:18.291Z,97752.88
2023-03-05T19:28:21.284Z,97750.25
2023-03-05T19:31:23.322Z,97751.97
2023-03-05T19:34:26.346Z,97748.53
2023-03-05T19:37:28.106Z,97750.28
2023-03-05T19:40:30.099Z,97730.19
2023-03-05T19:43:31.788Z,97744.25
2023-03-05T19:46:33.748Z,97739.94
2023-03-05T19:49:37.212Z,97736.47
2023-03-05T19:52:39.141Z,97745.22
2023-03-05T19:55:40.960Z,97741.69
2023-03-05T19:58:45.636Z,97739.16
2023-03-05T20:01:48.201Z,97732.16
2023-03-05T20:04:51.269Z,97739.22
2023-03-05T20:07:53.175Z,97739.25
2023-03-05T20:10:54.713Z,97734.91
2023-03-05T20:13:56.530Z,97737.66
2023-03-05T20:16:58.215Z,97734.09
2023-03-05T20:20:02.386Z,97726.25
2023-03-05T20:23:04.291Z,97730.81
2023-03-05T20:26:06.883Z,97731.66
2023-03-05T20:29:08.834Z,97724.69
2023-03-05T20:32:10.708Z,97725.63
2023-03-05T20:35:15.118Z,97724.78
2023-03-05T20:38:25.192Z,97718.72
2023-03-05T20:41:27.151Z,97712.63
2023-03-05T20:44:29.128Z,97708.22
2023-03-05T20:47:40.614Z,97713.44
2023-03-05T20:50:44.174Z,97708.19
2023-03-05T20:53:45.964Z,97702.84
2023-03-05T20:56:48.015Z,97702.91
2023-03-05T20:59:49.821Z,97700.28
2023-03-05T21:02:54.646Z,97706.44
2023-03-05T21:05:57.842Z,97699.50
2023-03-05T21:08:59.995Z,97686.50
2023-03-05T21:12:02.357Z,97684.75
2023-03-05T21:15:05.081Z,97678.56
2023-03-05T21:18:06.838Z,97679.53
2023-03-05T21:21:10.238Z,97668.22
2023-03-05T21:24:11.874Z,97674.41
2023-03-05T21:27:13.479Z,97668.31
2023-03-05T21:30:15.793Z,97663.13
2023-03-05T21:33:19.215Z,97659.72
2023-03-05T21:36:22.556Z,97645.81
2023-03-05T21:39:24.819Z,97648.56
2023-03-05T21:42:26.619Z,97639.03
2023-03-05T21:45:29.307Z,97634.78
2023-03-05T21:48:38.588Z,97627.00
2023-03-05T21:51:53.254Z,97625.31
2023-03-05T21:54:54.922Z,97621.03
2023-03-05T21:57:56.722Z,97609.69
2023-03-05T22:00:58.707Z,97614.19
2023-03-05T22:04:00.860Z,97607.28
2023-03-05T22:07:06.157Z,97602.97
2023-03-05T22:10:10.697Z,97592.59
2023-03-05T22:13:12.644Z,97587.41
2023-03-05T22:16:21.080Z,97591.81
2023-03-05T22:19:22.750Z,97581.34
2023-03-05T22:22:26.914Z,97579.59
2023-03-05T22:25:28.822Z,97572.59
2023-03-05T22:28:30.758Z,97575.28
2023-03-05T22:31:32.987Z,97566.56
2023-03-05T22:34:34.754Z,97570.88
2023-03-05T22:37:38.054Z,97563.00
2023-03-05T22:40:42.315Z,97566.53
2023-03-05T22:43:45.188Z,97563.84
2023-03-05T22:46:47.017Z,97560.31
2023-03-05T22:49:48.928Z,97557.69
2023-03-05T22:52:52.266Z,97558.53
2023-03-05T22:55:54.161Z,97548.88
2023-03-05T22:58:56.383Z,97553.34
2023-03-05T23:01:58.189Z,97543.69
2023-03-05T23:05:01.526Z,97540.13
2023-03-05T23:08:05.873Z,97535.78
2023-03-05T23:11:08.089Z,97532.22
2023-03-05T23:14:10.219Z,97526.97
2023-03-05T23:17:12.400Z,97525.19
2023-03-05T23:20:16.936Z,97519.94
2023-03-05T23:23:20.253Z,97513.72
2023-03-05T23:26:22.080Z,97513.66
2023-03-05T23:29:25.808Z,97507.53
2023-03-05T23:32:27.915Z,97515.38
2023-03-05T23:35:30.463Z,97516.25
2023-03-05T23:38:35.207Z,97512.75
2023-03-05T23:41:36.905Z,97508.41
2023-03-05T23:44:38.726Z,97504.91
2023-03-05T23:47:40.964Z,97503.16
2023-03-05T23:50:44.006Z,97504.00
2023-03-05T23:53:48.384Z,97502.28
2023-03-05T23:56:50.145Z,97499.78
2023-03-05T23:59:51.845Z,97502.44
